Time;durP1;ratioP1;P1;durP2;ratioP2;P2;SDS_P1;SDS_P2;PMS_P1;PMS_P2;Temp;Humidity;BMP_temperature;BMP_pressure;BME280_temperature;BME280_humidity;BME280_pressure;Samples;Min_cycle;Max_cycle;Signal;HPM_P1;HPM_P2
2021/12/22 00:00:10;;;;;;;24.70;14.30;;;-2.60;91.50;;;;;;5026114;28;20234;-82
2021/12/22 00:02:39;;;;;;;24.13;13.73;;;-2.60;91.60;;;;;;5025235;28;20301;-80
2021/12/22 00:05:07;;;;;;;24.60;15.10;;;-2.70;91.20;;;;;;5024720;28;20220;-81
2021/12/22 00:07:35;;;;;;;26.88;16.75;;;-2.80;91.20;;;;;;5023794;28;20220;-81
2021/12/22 00:10:02;;;;;;;25.85;15.57;;;-2.80;91.40;;;;;;5024670;28;20209;-82
2021/12/22 00:12:29;;;;;;;35.35;19.48;;;-2.90;91.10;;;;;;5023430;28;20236;-80
2021/12/22 00:14:56;;;;;;;23.08;15.55;;;-3.00;91.10;;;;;;5024491;28;20221;-83
2021/12/22 00:17:23;;;;;;;29.70;16.73;;;-3.00;91.20;;;;;;5025725;28;20369;-83
2021/12/22 00:19:50;;;;;;;23.85;14.40;;;-3.10;91.30;;;;;;5030497;28;20252;-80
2021/12/22 00:22:18;;;;;;;21.20;11.88;;;-3.10;91.70;;;;;;5022313;28;20225;-81
2021/12/22 00:24:46;;;;;;;27.85;15.35;;;-3.10;91.70;;;;;;5023145;28;20192;-81
2021/12/22 00:27:13;;;;;;;22.58;14.55;;;-3.10;91.90;;;;;;5021798;28;20224;-81
2021/12/22 00:29:42;;;;;;;24.75;13.52;;;-3.20;92.00;;;;;;5021885;28;20577;-82
2021/12/22 00:32:11;;;;;;;21.10;13.75;;;-3.30;91.90;;;;;;5022356;28;20228;-82
2021/12/22 00:34:46;;;;;;;20.63;13.40;;;-3.40;91.90;;;;;;5021584;28;20212;-83
2021/12/22 00:37:15;;;;;;;19.50;12.40;;;-3.50;91.90;;;;;;5024851;28;20200;-83
2021/12/22 00:39:43;;;;;;;26.30;13.30;;;-3.50;92.10;;;;;;5023505;28;20216;-81
2021/12/22 00:42:12;;;;;;;22.20;14.48;;;-3.70;92.10;;;;;;5026184;28;20295;-82
2021/12/22 00:44:40;;;;;;;20.90;13.32;;;-3.70;92.30;;;;;;5026160;28;20610;-82
2021/12/22 00:47:07;;;;;;;18.15;13.25;;;-3.90;92.20;;;;;;5029164;28;20227;-82
2021/12/22 00:49:35;;;;;;;19.80;12.65;;;-4.00;92.50;;;;;;5037617;28;20226;-82
2021/12/22 00:52:03;;;;;;;21.58;12.93;;;-4.00;93.00;;;;;;5026368;28;20227;-82
2021/12/22 00:54:31;;;;;;;21.42;13.55;;;-4.00;93.50;;;;;;5024853;28;20542;-82
2021/12/22 00:57:03;;;;;;;18.85;13.82;;;-4.10;93.40;;;;;;5027215;28;20242;-82
2021/12/22 00:59:32;;;;;;;22.25;13.57;;;-4.20;93.40;;;;;;5032153;28;20219;-81
2021/12/22 01:02:00;;;;;;;22.42;14.02;;;-4.20;93.60;;;;;;5032114;28;20220;-82
2021/12/22 01:04:28;;;;;;;20.08;13.30;;;-4.30;93.60;;;;;;5022417;28;20226;-81
2021/12/22 01:06:55;;;;;;;25.40;13.90;;;-4.40;93.80;;;;;;5021064;28;20235;-81
2021/12/22 01:09:22;;;;;;;20.17;13.90;;;-4.40;94.30;;;;;;5023518;28;20679;-81
2021/12/22 01:11:50;;;;;;;21.70;12.52;;;-4.40;94.60;;;;;;5023597;28;20227;-80
2021/12/22 01:14:18;;;;;;;22.83;14.85;;;-4.50;94.60;;;;;;5023570;28;20290;-81
2021/12/22 01:16:48;;;;;;;21.95;15.02;;;-4.50;94.90;;;;;;5023249;28;20219;-81
2021/12/22 01:19:22;;;;;;;20.55;13.73;;;-4.60;94.90;;;;;;5029809;28;20216;-82
2021/12/22 01:21:55;;;;;;;27.60;14.05;;;-4.60;95.00;;;;;;5029375;28;20660;-82
2021/12/22 01:24:29;;;;;;;22.38;13.85;;;-4.50;96.00;;;;;;5030286;28;20192;-82
2021/12/22 01:27:04;;;;;;;22.05;14.20;;;-4.50;96.60;;;;;;5034933;28;20262;-82
2021/12/22 01:29:32;;;;;;;21.30;12.10;;;-4.40;96.70;;;;;;5027824;28;20211;-81
2021/12/22 01:32:01;;;;;;;23.80;14.38;;;-4.40;96.70;;;;;;5025620;28;20235;-81
2021/12/22 01:34:29;;;;;;;21.30;14.20;;;-4.50;96.70;;;;;;5030013;28;20208;-82
2021/12/22 01:36:56;;;;;;;23.30;13.60;;;-4.50;97.00;;;;;;5031534;28;20212;-81
2021/12/22 01:39:23;;;;;;;24.30;14.52;;;-4.40;97.60;;;;;;5033246;28;20207;-81
2021/12/22 01:41:53;;;;;;;20.92;13.70;;;-4.40;97.60;;;;;;5028207;28;20251;-80
2021/12/22 01:44:30;;;;;;;23.50;14.63;;;-4.40;97.40;;;;;;5029835;28;20214;-80
2021/12/22 01:49:52;;;;;;;23.70;14.80;;;-4.50;97.80;;;;;;5034236;28;20215;-81
2021/12/22 01:52:21;;;;;;;27.35;14.32;;;-4.50;97.90;;;;;;5027523;28;20231;-81
2021/12/22 01:55:04;;;;;;;23.40;13.90;;;-4.60;97.60;;;;;;5030927;28;20212;-82
2021/12/22 01:57:32;;;;;;;21.52;12.88;;;-4.70;97.70;;;;;;5026759;28;20230;-81
2021/12/22 02:00:00;;;;;;;23.98;14.10;;;-4.70;98.00;;;;;;5025024;28;20276;-81
2021/12/22 02:02:29;;;;;;;22.92;14.30;;;-4.60;98.30;;;;;;5026811;28;20228;-80
2021/12/22 02:04:57;;;;;;;25.90;15.70;;;-4.70;98.40;;;;;;5025339;28;20596;-82
2021/12/22 02:07:24;;;;;;;26.67;14.60;;;-4.60;98.90;;;;;;5026199;28;20232;-82
2021/12/22 02:10:04;;;;;;;26.90;15.15;;;-4.60;99.20;;;;;;5024729;28;20219;-83
2021/12/22 02:12:36;;;;;;;26.00;13.68;;;-4.60;99.50;;;;;;5024847;28;20310;-81
2021/12/22 02:15:06;;;;;;;24.63;14.73;;;-4.60;99.70;;;;;;5032200;28;20208;-81
2021/12/22 02:17:36;;;;;;;27.00;14.73;;;-4.60;99.90;;;;;;5032546;28;20219;-80
2021/12/22 02:20:06;;;;;;;23.75;13.60;;;-4.50;99.90;;;;;;5027465;28;20220;-80
2021/12/22 02:22:33;;;;;;;27.25;14.88;;;-4.50;99.90;;;;;;5018960;28;20211;-80
2021/12/22 02:25:06;;;;;;;24.73;14.20;;;-4.50;99.90;;;;;;5018822;28;20207;-79
2021/12/22 02:27:38;;;;;;;29.73;15.93;;;-4.60;99.90;;;;;;5019917;28;20231;-80
2021/12/22 02:30:14;;;;;;;37.55;16.55;;;-4.70;99.90;;;;;;5017843;28;20208;-79
2021/12/22 02:35:40;;;;;;;28.98;16.17;;;-4.80;99.90;;;;;;5018214;28;20238;-80
2021/12/22 02:38:13;;;;;;;23.95;15.32;;;-4.70;99.90;;;;;;5026380;28;20202;-79
2021/12/22 02:40:40;;;;;;;25.27;14.45;;;-4.70;99.90;;;;;;5021826;28;20227;-78
2021/12/22 02:43:07;;;;;;;25.05;16.13;;;-4.70;99.90;;;;;;5017704;28;20231;-80
2021/12/22 02:45:36;;;;;;;26.50;14.80;;;-4.70;99.90;;;;;;5017136;28;20215;-79
2021/12/22 02:48:04;;;;;;;27.48;14.80;;;-4.60;99.90;;;;;;5015717;28;20231;-81
2021/12/22 02:50:36;;;;;;;29.05;14.30;;;-4.60;99.90;;;;;;5016597;28;20224;-79
2021/12/22 02:53:06;;;;;;;28.25;16.80;;;-4.60;99.90;;;;;;5017902;28;20314;-81
2021/12/22 02:55:44;;;;;;;26.48;14.95;;;-4.60;99.90;;;;;;5015462;28;20218;-80
2021/12/22 02:58:15;;;;;;;29.08;16.60;;;-4.50;99.90;;;;;;5019569;28;20298;-80
2021/12/22 03:01:05;;;;;;;27.83;16.27;;;-4.50;99.90;;;;;;5020588;28;20227;-79
2021/12/22 03:03:48;;;;;;;25.05;15.80;;;-4.50;99.90;;;;;;5020946;28;20230;-80
2021/12/22 03:06:25;;;;;;;30.10;14.25;;;-4.50;99.90;;;;;;5023877;28;20302;-80
2021/12/22 03:08:52;;;;;;;28.63;15.02;;;-4.40;99.90;;;;;;5025923;28;20230;-79
2021/12/22 03:11:19;;;;;;;28.13;15.02;;;-4.40;99.90;;;;;;5027034;28;20277;-80
2021/12/22 03:13:46;;;;;;;26.83;16.00;;;-4.50;99.90;;;;;;5027936;28;20254;-81
2021/12/22 03:16:12;;;;;;;28.77;15.82;;;-4.60;99.90;;;;;;5027867;28;20204;-80
2021/12/22 03:18:40;;;;;;;28.42;15.45;;;-4.70;99.90;;;;;;5027283;28;20302;-78
2021/12/22 03:21:18;;;;;;;27.98;15.23;;;-4.80;99.90;;;;;;5024087;28;20223;-80
2021/12/22 03:23:47;;;;;;;26.05;13.43;;;-4.90;99.90;;;;;;5024239;28;20314;-81
2021/12/22 03:26:16;;;;;;;26.60;14.57;;;-4.90;99.90;;;;;;5027534;28;20306;-80
2021/12/22 03:28:43;;;;;;;29.42;16.25;;;-4.90;99.90;;;;;;5026941;28;20223;-79
2021/12/22 03:31:10;;;;;;;26.23;15.40;;;-4.90;99.90;;;;;;5027539;28;20266;-80
2021/12/22 03:33:37;;;;;;;28.80;15.77;;;-5.00;99.90;;;;;;5028871;28;20219;-80
2021/12/22 03:36:05;;;;;;;22.10;13.05;;;-5.00;99.90;;;;;;5028746;28;20208;-79
2021/12/22 03:38:32;;;;;;;25.48;15.57;;;-5.00;99.90;;;;;;5024770;28;20204;-79
2021/12/22 03:41:01;;;;;;;22.88;13.77;;;-5.10;99.90;;;;;;5026911;28;20232;-80
2021/12/22 03:43:28;;;;;;;25.48;14.10;;;-5.00;99.90;;;;;;5038609;28;20280;-79
2021/12/22 03:45:55;;;;;;;25.45;15.02;;;-5.00;99.90;;;;;;5028930;28;20232;-79
2021/12/22 03:48:24;;;;;;;23.15;14.23;;;-5.10;99.90;;;;;;5038629;28;20325;-78
2021/12/22 03:50:51;;;;;;;27.20;15.20;;;-5.10;99.90;;;;;;5030661;28;20231;-79
2021/12/22 03:53:18;;;;;;;24.00;14.25;;;-5.10;99.90;;;;;;5020193;28;20246;-79
2021/12/22 03:55:45;;;;;;;24.98;15.40;;;-5.10;99.90;;;;;;5020326;28;20204;-79
2021/12/22 03:58:14;;;;;;;23.63;12.65;;;-5.20;99.90;;;;;;5020538;28;20725;-79
2021/12/22 04:00:42;;;;;;;22.73;13.77;;;-5.20;99.90;;;;;;5019249;28;20297;-79
2021/12/22 04:03:16;;;;;;;29.50;13.82;;;-5.30;99.90;;;;;;5019817;28;20319;-79
2021/12/22 04:05:43;;;;;;;22.10;12.63;;;-5.30;99.90;;;;;;5019919;28;20254;-79
2021/12/22 04:08:11;;;;;;;22.45;12.75;;;-5.30;99.90;;;;;;5020443;28;20255;-79
2021/12/22 04:10:38;;;;;;;26.23;13.60;;;-5.40;99.90;;;;;;5021411;28;20236;-77
2021/12/22 04:13:05;;;;;;;23.27;14.10;;;-5.30;99.90;;;;;;5034945;28;20212;-77
2021/12/22 04:15:34;;;;;;;25.63;14.40;;;-5.40;99.90;;;;;;5026065;28;20295;-79
2021/12/22 04:18:01;;;;;;;23.88;13.93;;;-5.30;99.90;;;;;;5020567;28;20240;-79
2021/12/22 04:20:29;;;;;;;23.35;14.90;;;-5.20;99.90;;;;;;5021183;28;20255;-79
2021/12/22 04:22:56;;;;;;;27.25;14.30;;;-5.20;99.90;;;;;;5018921;28;20216;-80
2021/12/22 04:25:23;;;;;;;25.73;14.02;;;-5.20;99.90;;;;;;5020524;28;20364;-78
2021/12/22 04:27:52;;;;;;;21.90;12.35;;;-5.20;99.90;;;;;;5020253;28;20246;-79
2021/12/22 04:30:19;;;;;;;26.90;13.52;;;-5.20;99.90;;;;;;5020644;28;20231;-80
2021/12/22 04:32:48;;;;;;;24.25;13.85;;;-5.30;99.90;;;;;;5020484;28;20262;-80
2021/12/22 04:35:15;;;;;;;28.27;14.52;;;-5.20;99.90;;;;;;5020736;28;20211;-79
2021/12/22 04:37:42;;;;;;;24.77;15.65;;;-5.10;99.90;;;;;;5020284;28;20280;-79
2021/12/22 04:40:10;;;;;;;28.85;16.30;;;-5.00;99.90;;;;;;5022222;28;20228;-79
2021/12/22 04:42:37;;;;;;;30.45;16.88;;;-5.00;99.90;;;;;;5021473;28;20216;-79
2021/12/22 04:45:06;;;;;;;28.23;15.88;;;-4.90;99.90;;;;;;5030571;28;20295;-79
2021/12/22 04:47:33;;;;;;;24.70;14.13;;;-4.90;99.90;;;;;;5035343;28;20239;-81
2021/12/22 04:50:03;;;;;;;27.85;15.60;;;-4.90;99.90;;;;;;5035073;28;20234;-79
2021/12/22 04:52:37;;;;;;;33.30;17.83;;;-4.80;99.90;;;;;;5028362;28;20227;-78
2021/12/22 04:55:05;;;;;;;28.98;16.38;;;-4.80;99.90;;;;;;5029976;28;20384;-77
2021/12/22 04:57:33;;;;;;;28.80;15.95;;;-4.80;99.90;;;;;;5026517;28;20266;-78
2021/12/22 05:00:00;;;;;;;27.92;16.13;;;-4.80;99.90;;;;;;5035595;28;20212;-79
2021/12/22 05:02:27;;;;;;;31.83;15.90;;;-4.80;99.90;;;;;;5036340;28;20248;-80
2021/12/22 05:04:54;;;;;;;28.60;15.38;;;-4.70;99.90;;;;;;5035273;28;20242;-82
2021/12/22 05:07:23;;;;;;;24.50;15.45;;;-4.70;99.90;;;;;;5034524;28;20288;-80
2021/12/22 05:09:49;;;;;;;28.13;14.63;;;-4.70;99.90;;;;;;5023336;28;20661;-80
2021/12/22 05:12:16;;;;;;;27.20;16.20;;;-4.80;99.90;;;;;;5022095;28;20227;-78
2021/12/22 05:14:47;;;;;;;29.13;16.00;;;-4.80;99.90;;;;;;5018333;28;20298;-79
2021/12/22 05:17:19;;;;;;;30.65;16.60;;;-4.80;99.80;;;;;;5024042;28;20219;-79
2021/12/22 05:19:46;;;;;;;27.63;15.98;;;-4.80;99.80;;;;;;5023356;28;20204;-82
2021/12/22 05:22:13;;;;;;;26.08;16.85;;;-4.80;99.60;;;;;;5018972;28;20235;-79
2021/12/22 05:24:41;;;;;;;29.40;17.27;;;-4.90;99.60;;;;;;5019470;28;20260;-80
2021/12/22 05:27:11;;;;;;;30.00;16.38;;;-4.90;99.50;;;;;;5018216;28;20208;-79
2021/12/22 05:29:38;;;;;;;26.30;15.25;;;-4.80;99.60;;;;;;5016575;28;20618;-80
2021/12/22 05:32:06;;;;;;;23.70;15.85;;;-4.90;99.40;;;;;;5016862;28;20232;-79
2021/12/22 05:34:33;;;;;;;24.75;15.23;;;-4.90;99.40;;;;;;5021150;28;20215;-78
2021/12/22 05:37:00;;;;;;;29.80;14.85;;;-4.90;99.20;;;;;;5019760;28;20218;-78
2021/12/22 05:39:27;;;;;;;22.42;13.60;;;-4.90;98.90;;;;;;5016753;28;20212;-78
2021/12/22 05:41:57;;;;;;;27.75;14.40;;;-4.90;98.80;;;;;;5015062;28;20567;-80
2021/12/22 05:44:24;;;;;;;23.58;13.48;;;-4.90;99.00;;;;;;5016418;28;20268;-79
2021/12/22 05:46:51;;;;;;;24.45;14.55;;;-5.00;98.20;;;;;;5015369;28;20234;-79
2021/12/22 05:49:19;;;;;;;20.83;12.80;;;-5.00;98.20;;;;;;5016643;28;20314;-79
2021/12/22 05:51:46;;;;;;;25.23;12.90;;;-5.10;97.70;;;;;;5018056;28;20263;-79
2021/12/22 05:54:13;;;;;;;24.98;12.10;;;-5.20;97.50;;;;;;5016415;28;20214;-78
2021/12/22 05:56:40;;;;;;;23.20;13.55;;;-5.20;97.10;;;;;;5017077;28;20235;-79
2021/12/22 05:59:08;;;;;;;23.10;14.07;;;-5.30;96.80;;;;;;5017114;28;20208;-78
2021/12/22 06:01:35;;;;;;;21.30;12.23;;;-5.30;96.90;;;;;;5018473;28;20715;-81
2021/12/22 06:04:03;;;;;;;24.33;13.82;;;-5.30;96.80;;;;;;5032946;28;20215;-81
2021/12/22 06:06:30;;;;;;;25.52;14.98;;;-5.30;96.50;;;;;;5029422;28;20200;-79
2021/12/22 06:08:57;;;;;;;24.42;14.13;;;-5.30;96.60;;;;;;5035198;28;20212;-81
2021/12/22 06:11:24;;;;;;;22.45;13.35;;;-5.30;96.90;;;;;;5032296;28;20248;-79
2021/12/22 06:13:52;;;;;;;22.50;13.35;;;-5.30;96.40;;;;;;5017542;28;20310;-79
2021/12/22 06:16:20;;;;;;;21.88;12.50;;;-5.30;96.40;;;;;;5015712;28;20196;-79
2021/12/22 06:18:51;;;;;;;23.88;12.95;;;-5.30;96.40;;;;;;5015642;28;20551;-78
2021/12/22 06:21:18;;;;;;;25.80;12.93;;;-5.30;96.40;;;;;;5026893;28;20236;-79
2021/12/22 06:23:45;;;;;;;23.83;12.85;;;-5.30;96.40;;;;;;5027177;28;20578;-80
2021/12/22 06:26:12;;;;;;;28.00;14.73;;;-5.30;96.40;;;;;;5028628;28;20644;-79
2021/12/22 06:28:39;;;;;;;24.33;13.25;;;-5.40;96.30;;;;;;5022114;28;20254;-81
2021/12/22 06:31:06;;;;;;;22.60;13.00;;;-5.30;96.40;;;;;;5030781;28;20239;-80
2021/12/22 06:33:35;;;;;;;23.27;11.65;;;-5.30;96.40;;;;;;5030030;28;20326;-80
2021/12/22 06:36:02;;;;;;;24.65;12.13;;;-5.30;96.30;;;;;;5030888;28;20279;-79
2021/12/22 06:38:29;;;;;;;23.45;12.57;;;-5.30;96.30;;;;;;5020388;28;20223;-79
2021/12/22 06:40:56;;;;;;;29.25;13.68;;;-5.30;95.90;;;;;;5034667;28;20291;-80
2021/12/22 06:43:24;;;;;;;21.45;12.13;;;-5.30;96.20;;;;;;5035091;28;20699;-80
2021/12/22 06:45:51;;;;;;;24.58;12.63;;;-5.30;96.00;;;;;;5029262;28;20324;-80
2021/12/22 06:48:19;;;;;;;21.58;13.68;;;-5.40;96.00;;;;;;5013411;28;20215;-80
2021/12/22 06:50:48;;;;;;;25.05;12.60;;;-5.40;95.60;;;;;;5027472;28;20228;-79
2021/12/22 06:53:15;;;;;;;22.95;13.75;;;-5.40;95.70;;;;;;5024653;28;20315;-79
2021/12/22 06:55:42;;;;;;;29.15;14.48;;;-5.40;95.80;;;;;;5020565;28;20299;-80
2021/12/22 06:58:09;;;;;;;24.35;13.57;;;-5.40;95.90;;;;;;5008350;28;20214;-80
2021/12/22 07:00:36;;;;;;;22.50;13.68;;;-5.30;96.20;;;;;;5008764;28;20212;-80
2021/12/22 07:03:04;;;;;;;22.13;12.38;;;-5.30;96.20;;;;;;5025715;28;20262;-80
2021/12/22 07:05:32;;;;;;;27.05;12.95;;;-5.30;95.90;;;;;;5019315;28;20702;-80
2021/12/22 07:08:00;;;;;;;26.60;13.88;;;-5.30;95.50;;;;;;5009035;28;20274;-80
2021/12/22 07:10:28;;;;;;;22.15;12.63;;;-5.40;95.00;;;;;;5004434;28;22519;-79
2021/12/22 07:12:55;;;;;;;27.58;14.85;;;-5.40;94.80;;;;;;5007338;28;20200;-81
2021/12/22 07:15:22;;;;;;;24.27;13.13;;;-5.40;94.80;;;;;;5005831;28;20228;-80
2021/12/22 07:17:51;;;;;;;21.33;12.13;;;-5.40;94.70;;;;;;5002701;28;20227;-80
2021/12/22 07:20:19;;;;;;;24.85;13.38;;;-5.50;94.50;;;;;;5015931;28;20224;-81
2021/12/22 07:22:46;;;;;;;26.60;12.90;;;-5.50;94.20;;;;;;5003315;28;20255;-80
2021/12/22 07:25:18;;;;;;;29.88;14.52;;;-5.50;94.10;;;;;;5000384;28;20240;-80
2021/12/22 07:27:45;;;;;;;25.92;12.98;;;-5.50;93.90;;;;;;5012442;28;20196;-80
2021/12/22 07:30:13;;;;;;;29.00;13.93;;;-5.50;93.60;;;;;;5018850;28;20287;-80
2021/12/22 07:32:41;;;;;;;24.23;13.23;;;-5.50;93.80;;;;;;5017321;28;20204;-80
2021/12/22 07:35:10;;;;;;;28.52;12.65;;;-5.40;94.00;;;;;;4997818;28;20209;-80
2021/12/22 07:37:43;;;;;;;29.98;15.25;;;-5.40;93.80;;;;;;5002971;28;20211;-81
2021/12/22 07:40:13;;;;;;;22.35;12.15;;;-5.40;93.60;;;;;;5001242;28;20204;-79
2021/12/22 07:42:42;;;;;;;22.88;13.88;;;-5.50;93.60;;;;;;5004263;28;20216;-81
2021/12/22 07:45:11;;;;;;;24.27;12.23;;;-5.50;93.60;;;;;;5003456;28;20213;-80
2021/12/22 07:47:38;;;;;;;24.75;13.10;;;-5.50;94.00;;;;;;5000531;28;20266;-80
2021/12/22 07:50:07;;;;;;;29.17;13.88;;;-5.40;94.50;;;;;;5001370;28;20234;-80
2021/12/22 07:52:34;;;;;;;26.15;13.38;;;-5.40;94.60;;;;;;5014390;28;20214;-80
2021/12/22 07:55:01;;;;;;;27.77;13.57;;;-5.30;95.20;;;;;;5020310;28;20227;-80
2021/12/22 07:57:28;;;;;;;25.60;13.98;;;-5.10;96.00;;;;;;5019225;28;20212;-81
2021/12/22 07:59:57;;;;;;;21.63;11.65;;;-5.00;96.50;;;;;;5010413;28;20215;-81
2021/12/22 08:02:24;;;;;;;31.65;16.00;;;-4.90;96.70;;;;;;5005188;28;20239;-81
2021/12/22 08:04:51;;;;;;;32.60;15.48;;;-4.80;97.30;;;;;;5011846;28;20650;-81
2021/12/22 08:07:18;;;;;;;27.95;14.30;;;-4.70;97.60;;;;;;5011175;28;20276;-82
2021/12/22 08:09:46;;;;;;;33.92;14.50;;;-4.60;98.30;;;;;;5025379;28;20219;-81
2021/12/22 08:12:13;;;;;;;31.58;15.05;;;-4.50;98.70;;;;;;5040962;28;20242;-82
2021/12/22 08:14:40;;;;;;;33.60;15.93;;;-4.40;99.00;;;;;;5036709;28;20204;-86
2021/12/22 08:17:10;;;;;;;40.20;18.33;;;-4.30;99.20;;;;;;5010735;28;20208;-84
2021/12/22 08:19:37;;;;;;;31.30;15.30;;;-4.20;99.50;;;;;;5008726;28;20209;-84
2021/12/22 08:22:07;;;;;;;35.38;17.88;;;-4.20;99.90;;;;;;5010363;28;20228;-84
2021/12/22 08:24:36;;;;;;;54.95;22.08;;;-4.10;99.90;;;;;;5015907;28;20204;-85
2021/12/22 08:27:04;;;;;;;53.13;20.48;;;-4.00;99.90;;;;;;5019973;28;20228;-83
2021/12/22 08:29:31;;;;;;;64.25;25.77;;;-3.90;99.90;;;;;;5037641;28;20236;-83
2021/12/22 08:31:58;;;;;;;40.47;19.52;;;-4.00;99.90;;;;;;5037883;28;20303;-84
2021/12/22 08:34:35;;;;;;;33.75;17.10;;;-3.80;99.90;;;;;;5017301;28;20204;-83
2021/12/22 08:39:47;;;;;;;44.70;17.33;;;-3.80;99.90;;;;;;5036191;28;20252;-84
2021/12/22 08:42:14;;;;;;;37.33;17.88;;;-3.80;99.90;;;;;;5023329;28;20220;-82
2021/12/22 08:44:44;;;;;;;30.45;16.08;;;-3.80;99.90;;;;;;5006076;28;20215;-83
2021/12/22 08:47:11;;;;;;;36.85;19.05;;;-3.70;99.90;;;;;;5026810;28;20188;-84
2021/12/22 08:49:40;;;;;;;35.25;17.52;;;-3.60;99.90;;;;;;5036435;28;20254;-83
2021/12/22 08:52:08;;;;;;;37.47;19.80;;;-3.70;99.90;;;;;;5027223;28;20250;-83
2021/12/22 08:54:35;;;;;;;40.78;19.05;;;-3.60;99.90;;;;;;5024610;28;20235;-82
2021/12/22 08:57:04;;;;;;;40.55;19.23;;;-3.60;99.90;;;;;;5017316;28;20675;-83
2021/12/22 08:59:31;;;;;;;39.28;20.45;;;-3.60;99.90;;;;;;5041305;28;20290;-84
2021/12/22 09:01:59;;;;;;;39.33;20.08;;;-3.40;99.90;;;;;;5003391;28;20229;-83
2021/12/22 09:04:26;;;;;;;37.42;19.40;;;-3.30;99.90;;;;;;5004764;28;20383;-84
2021/12/22 09:06:55;;;;;;;40.28;20.02;;;-3.20;99.90;;;;;;5033299;28;20387;-83
2021/12/22 09:09:23;;;;;;;46.20;20.77;;;-3.10;99.90;;;;;;5034028;28;20230;-84
2021/12/22 09:11:51;;;;;;;40.83;20.50;;;-3.30;99.90;;;;;;5016309;28;20216;-82
2021/12/22 09:14:20;;;;;;;51.05;24.05;;;-3.40;99.90;;;;;;5015507;28;20247;-84
2021/12/22 09:16:50;;;;;;;38.15;19.63;;;-3.40;99.50;;;;;;5031390;28;20205;-82
2021/12/22 09:19:19;;;;;;;41.05;20.83;;;-3.30;99.90;;;;;;5036974;28;20240;-84
2021/12/22 09:21:46;;;;;;;40.88;20.85;;;-3.00;99.90;;;;;;5019876;28;20265;-83
2021/12/22 09:24:15;;;;;;;45.83;21.60;;;-2.80;99.90;;;;;;5018536;28;20215;-83
2021/12/22 09:26:42;;;;;;;42.03;18.40;;;-2.60;99.90;;;;;;5024333;28;20301;-83
2021/12/22 09:29:09;;;;;;;37.90;21.10;;;-2.40;99.90;;;;;;5035838;28;20243;-84
2021/12/22 09:31:36;;;;;;;37.17;19.80;;;-2.30;99.20;;;;;;5035161;28;20204;-85
2021/12/22 09:34:04;;;;;;;43.47;21.20;;;-2.10;98.80;;;;;;5036448;28;20208;-83
2021/12/22 09:36:31;;;;;;;41.67;19.85;;;-2.00;97.30;;;;;;5036455;28;20209;-81
2021/12/22 09:38:59;;;;;;;35.28;18.98;;;-2.00;95.90;;;;;;5036863;28;20197;-82
2021/12/22 09:41:27;;;;;;;35.95;19.17;;;-2.00;94.20;;;;;;5033269;28;20343;-83
2021/12/22 09:43:56;;;;;;;40.30;20.20;;;-2.00;93.60;;;;;;5015687;28;20257;-82
2021/12/22 09:46:24;;;;;;;36.00;19.63;;;-1.90;92.80;;;;;;5015947;28;20217;-83
2021/12/22 09:48:59;;;;;;;32.83;18.38;;;-1.80;92.00;;;;;;5015021;28;20203;-82
2021/12/22 09:54:13;;;;;;;38.63;19.70;;;-1.80;88.80;;;;;;5015464;28;20197;-83
2021/12/22 09:56:43;;;;;;;39.05;19.30;;;-1.80;88.20;;;;;;5027451;28;20210;-83
2021/12/22 09:59:13;;;;;;;41.60;19.63;;;-1.60;88.10;;;;;;5036594;28;20208;-83
2021/12/22 10:01:40;;;;;;;38.47;18.92;;;-1.60;85.20;;;;;;5035956;28;20272;-82
2021/12/22 10:04:09;;;;;;;38.25;19.60;;;-1.80;83.90;;;;;;5036654;28;20217;-82
2021/12/22 10:06:36;;;;;;;38.35;19.30;;;-1.70;84.00;;;;;;5036163;28;20519;-84
2021/12/22 10:09:06;;;;;;;36.78;20.10;;;-1.70;84.20;;;;;;5036647;28;20216;-84
2021/12/22 10:11:34;;;;;;;39.88;20.23;;;-1.80;83.80;;;;;;5024096;28;20249;-84
2021/12/22 10:14:17;;;;;;;32.50;18.45;;;-1.80;83.30;;;;;;5016876;28;20191;-83
2021/12/22 10:16:47;;;;;;;41.22;19.88;;;-1.70;83.90;;;;;;5017773;28;20355;-83
2021/12/22 10:19:14;;;;;;;43.72;20.30;;;-1.60;82.50;;;;;;5017311;28;20183;-84
2021/12/22 10:21:54;;;;;;;35.83;19.95;;;-1.70;81.50;;;;;;5028663;28;20259;-83
2021/12/22 10:24:35;;;;;;;38.08;20.13;;;-1.80;79.90;;;;;;5036969;28;20186;-82
2021/12/22 10:27:03;;;;;;;34.70;20.23;;;-1.80;79.80;;;;;;5036818;28;20177;-83
2021/12/22 10:29:33;;;;;;;42.47;20.17;;;-1.70;80.60;;;;;;5036425;28;20195;-81
2021/12/22 10:32:09;;;;;;;41.70;19.77;;;-1.70;80.50;;;;;;5036339;28;20218;-84
2021/12/22 10:34:36;;;;;;;43.20;20.30;;;-1.60;81.00;;;;;;5025089;28;20224;-83
2021/12/22 10:37:03;;;;;;;36.03;17.33;;;-1.60;80.10;;;;;;5015984;28;20207;-82
2021/12/22 10:39:32;;;;;;;37.45;21.10;;;-1.50;80.00;;;;;;5025072;28;20205;-81
2021/12/22 10:42:03;;;;;;;36.00;20.73;;;-1.50;79.40;;;;;;5036018;28;20214;-81
2021/12/22 10:44:36;;;;;;;42.03;21.63;;;-1.40;79.60;;;;;;5027179;28;20203;-82
2021/12/22 10:47:18;;;;;;;44.92;22.15;;;-1.40;79.60;;;;;;5016012;28;20199;-83
2021/12/22 10:49:59;;;;;;;38.33;20.38;;;-1.40;78.50;;;;;;5016778;28;20248;-84
2021/12/22 10:52:27;;;;;;;36.90;21.17;;;-1.30;77.60;;;;;;5016094;28;20215;-84
2021/12/22 10:55:08;;;;;;;38.05;20.52;;;-1.40;76.00;;;;;;5016828;28;20229;-83
2021/12/22 10:57:36;;;;;;;37.58;21.23;;;-1.60;75.80;;;;;;5016062;28;20198;-82
2021/12/22 11:00:15;;;;;;;40.53;20.48;;;-1.60;75.80;;;;;;5024752;28;20502;-83
2021/12/22 11:02:50;;;;;;;35.88;20.38;;;-1.50;76.10;;;;;;5029166;28;20221;-81
2021/12/22 11:05:27;;;;;;;41.35;19.40;;;-1.50;77.20;;;;;;5027638;28;20302;-82
2021/12/22 11:07:54;;;;;;;36.72;19.10;;;-1.30;77.40;;;;;;5027818;28;20220;-83
2021/12/22 11:10:26;;;;;;;37.83;19.58;;;-1.30;76.10;;;;;;5035154;28;20246;-82
2021/12/22 11:13:01;;;;;;;37.97;19.15;;;-1.10;76.20;;;;;;5035372;28;20201;-84
2021/12/22 11:15:36;;;;;;;36.28;17.73;;;-1.00;75.50;;;;;;5020479;28;20248;-83
2021/12/22 11:18:03;;;;;;;31.25;17.85;;;-0.90;74.70;;;;;;5016491;28;20193;-82
2021/12/22 11:20:31;;;;;;;32.05;18.67;;;-0.60;73.40;;;;;;5030438;28;20223;-83
2021/12/22 11:23:00;;;;;;;34.65;18.40;;;-0.60;71.90;;;;;;5037994;28;20206;-83
2021/12/22 11:25:28;;;;;;;35.38;19.88;;;-0.50;70.60;;;;;;5037386;28;20273;-83
2021/12/22 11:28:00;;;;;;;32.40;18.27;;;-0.50;68.30;;;;;;5036277;28;20210;-83
2021/12/22 11:30:30;;;;;;;37.40;19.88;;;-0.60;68.30;;;;;;5037984;28;20202;-82
2021/12/22 11:32:58;;;;;;;31.63;17.85;;;-0.70;68.20;;;;;;5035061;28;20224;-83
2021/12/22 11:35:26;;;;;;;33.53;18.08;;;-0.90;68.00;;;;;;5035641;28;20254;-83
2021/12/22 11:37:53;;;;;;;35.83;17.50;;;-0.90;68.10;;;;;;5039513;28;20214;-83
2021/12/22 11:40:22;;;;;;;34.10;19.63;;;-0.80;69.50;;;;;;5039323;28;20198;-81
2021/12/22 11:42:49;;;;;;;37.20;19.52;;;-0.70;69.90;;;;;;5038693;28;20343;-82
2021/12/22 11:45:24;;;;;;;30.23;18.85;;;-0.70;69.00;;;;;;5039449;28;20187;-81
2021/12/22 11:48:11;;;;;;;34.13;17.42;;;-0.80;68.10;;;;;;5037898;28;20199;-86
2021/12/22 11:50:44;;;;;;;37.72;19.88;;;-0.80;69.00;;;;;;5018676;28;20235;-84
2021/12/22 11:53:11;;;;;;;37.53;19.30;;;-0.70;68.90;;;;;;5019341;28;20261;-83
2021/12/22 11:55:40;;;;;;;33.67;19.27;;;-0.80;68.10;;;;;;5017936;28;20302;-82
2021/12/22 11:58:16;;;;;;;34.80;17.55;;;-1.10;67.80;;;;;;5016926;28;20217;-82
2021/12/22 12:00:45;;;;;;;34.55;18.45;;;-1.10;68.80;;;;;;5017338;28;20312;-83
2021/12/22 12:03:26;;;;;;;35.63;18.77;;;-0.90;70.10;;;;;;5020518;28;20209;-83
2021/12/22 12:06:08;;;;;;;35.47;18.00;;;-1.00;69.40;;;;;;5021753;28;20212;-84
2021/12/22 12:08:41;;;;;;;33.42;18.33;;;-0.80;71.10;;;;;;5009839;28;20215;-85
2021/12/22 12:11:09;;;;;;;36.90;22.10;;;-0.70;71.00;;;;;;5022090;28;20264;-84
2021/12/22 12:13:43;;;;;;;40.42;19.58;;;-0.60;69.90;;;;;;5030272;28;20279;-83
2021/12/22 12:22:20;;;;;;;41.92;22.13;;;-0.60;70.50;;;;;;5015016;28;20318;-83
2021/12/22 12:24:49;;;;;;;39.10;21.48;;;-0.50;69.60;;;;;;5002644;28;20301;-83
2021/12/22 12:27:42;;;;;;;36.63;20.38;;;-0.50;69.90;;;;;;5019125;28;20616;-83
2021/12/22 12:30:21;;;;;;;34.08;19.85;;;-0.40;70.10;;;;;;5004173;28;20211;-82
2021/12/22 12:33:03;;;;;;;40.33;21.65;;;-0.30;68.50;;;;;;5016644;28;20497;-82
2021/12/22 12:35:34;;;;;;;33.85;18.30;;;-0.30;68.50;;;;;;5025213;28;20214;-82
2021/12/22 12:38:05;;;;;;;34.50;20.50;;;-0.10;68.70;;;;;;5022340;28;20293;-85
2021/12/22 12:41:21;;;;;;;33.30;19.65;;;-0.10;67.60;;;;;;5012272;28;20295;-85
2021/12/22 12:44:00;;;;;;;35.92;19.98;;;-0.30;66.70;;;;;;5036119;28;20190;-85
2021/12/22 12:46:52;;;;;;;38.22;19.80;;;-0.30;66.10;;;;;;5036799;28;20226;-84
2021/12/22 12:49:39;;;;;;;38.42;18.90;;;-0.50;66.30;;;;;;5013194;28;20261;-83
2021/12/22 12:52:10;;;;;;;35.55;20.63;;;-0.60;67.70;;;;;;5042268;28;20302;-84
2021/12/22 12:54:46;;;;;;;35.90;17.75;;;-0.50;68.30;;;;;;5030097;28;20203;-85
2021/12/22 12:57:30;;;;;;;34.83;19.17;;;-0.50;68.30;;;;;;5005174;28;20222;-82